createdAt,value
2022-08-02T00:00:08.619Z,1015.31
2022-08-02T00:01:08.669Z,1015.34
2022-08-02T00:02:09.219Z,1015.36
2022-08-02T00:03:08.586Z,1015.36
2022-08-02T00:04:07.914Z,1015.37
2022-08-02T00:05:07.913Z,1015.37
2022-08-02T00:06:08.533Z,1015.40
2022-08-02T00:07:09.374Z,1015.41
2022-08-02T00:08:08.518Z,1015.42
2022-08-02T00:09:07.834Z,1015.42
2022-08-02T00:10:08.484Z,1015.41
2022-08-02T00:11:07.865Z,1015.42
2022-08-02T00:12:08.843Z,1015.42
2022-08-02T00:13:08.436Z,1015.41
2022-08-02T00:14:09.709Z,1015.44
2022-08-02T00:15:07.750Z,1015.46
2022-08-02T00:16:08.426Z,1015.41
2022-08-02T00:17:07.736Z,1015.40
2022-08-02T00:18:08.398Z,1015.41
2022-08-02T00:19:08.385Z,1015.39
2022-08-02T00:20:07.745Z,1015.39
2022-08-02T00:21:08.368Z,1015.37
2022-08-02T00:22:08.811Z,1015.33
2022-08-02T00:23:08.338Z,1015.33
2022-08-02T00:24:28.738Z,1015.32
2022-08-02T00:25:11.111Z,1015.30
2022-08-02T00:26:08.319Z,1015.30
2022-08-02T00:27:09.583Z,1015.29
2022-08-02T00:28:08.297Z,1015.32
2022-08-02T00:29:07.602Z,1015.31
2022-08-02T00:30:07.580Z,1015.29
2022-08-02T00:31:07.659Z,1015.29
2022-08-02T00:32:07.937Z,1015.32
2022-08-02T00:33:07.626Z,1015.32
2022-08-02T00:34:29.135Z,1015.33
2022-08-02T00:35:10.555Z,1015.33
2022-08-02T00:36:07.620Z,1015.34
2022-08-02T00:37:08.189Z,1015.28
2022-08-02T00:38:07.541Z,1015.29
2022-08-02T00:39:07.527Z,1015.29
2022-08-02T00:40:09.949Z,1015.27
2022-08-02T00:41:07.525Z,1015.26
2022-08-02T00:42:07.626Z,1015.24
2022-08-02T00:43:07.562Z,1015.25
2022-08-02T00:44:07.459Z,1015.24
2022-08-02T00:45:08.112Z,1015.29
2022-08-02T00:46:08.104Z,1015.26
2022-08-02T00:47:07.453Z,1015.28
2022-08-02T00:48:07.523Z,1015.25
2022-08-02T00:49:07.456Z,1015.23
2022-08-02T00:50:08.054Z,1015.23
2022-08-02T00:51:08.044Z,1015.22
2022-08-02T00:52:07.454Z,1015.24
2022-08-02T00:53:08.028Z,1015.21
2022-08-02T00:54:08.016Z,1015.18
2022-08-02T00:55:07.362Z,1015.20
2022-08-02T00:56:07.305Z,1015.15
2022-08-02T00:57:07.328Z,1015.16
2022-08-02T00:58:07.967Z,1015.17
2022-08-02T00:59:07.287Z,1015.15
2022-08-02T01:00:07.968Z,1015.16
2022-08-02T01:01:07.411Z,1015.18
2022-08-02T01:02:07.951Z,1015.15
2022-08-02T01:03:07.456Z,1015.13
2022-08-02T01:04:07.898Z,1015.14
2022-08-02T01:05:07.913Z,1015.18
2022-08-02T01:06:11.567Z,1015.18
2022-08-02T01:07:12.351Z,1015.19
2022-08-02T01:08:08.856Z,1015.16
2022-08-02T01:09:07.846Z,1015.17
2022-08-02T01:10:07.851Z,1015.21
2022-08-02T01:11:07.402Z,1015.19
2022-08-02T01:12:07.308Z,1015.19
2022-08-02T01:13:07.218Z,1015.20
2022-08-02T01:14:07.145Z,1015.18
2022-08-02T01:15:07.791Z,1015.15
2022-08-02T01:16:07.560Z,1015.18
2022-08-02T01:17:07.130Z,1015.19
2022-08-02T01:18:07.202Z,1015.20
2022-08-02T01:19:07.091Z,1015.17
2022-08-02T01:20:08.742Z,1015.22
2022-08-02T01:21:07.041Z,1015.19
2022-08-02T01:22:07.053Z,1015.20
2022-08-02T01:23:07.027Z,1015.16
2022-08-02T01:24:07.142Z,1015.18
2022-08-02T01:25:07.682Z,1015.19
2022-08-02T01:26:07.672Z,1015.18
2022-08-02T01:27:07.654Z,1015.15
2022-08-02T01:28:07.652Z,1015.16
2022-08-02T01:29:07.037Z,1015.16
2022-08-02T01:30:07.005Z,1015.15
2022-08-02T01:31:07.710Z,1015.11
2022-08-02T01:32:07.699Z,1015.11
2022-08-02T01:33:06.978Z,1015.09
2022-08-02T01:34:07.608Z,1015.09
2022-08-02T01:35:07.566Z,1015.15
2022-08-02T01:36:07.557Z,1015.14
2022-08-02T01:37:07.538Z,1015.14
2022-08-02T01:38:07.535Z,1015.19
2022-08-02T01:39:07.520Z,1015.22
2022-08-02T01:40:07.800Z,1015.22
2022-08-02T01:41:06.837Z,1015.18
2022-08-02T01:42:06.854Z,1015.19
2022-08-02T01:43:06.819Z,1015.21
2022-08-02T01:44:08.458Z,1015.24
2022-08-02T01:45:07.480Z,1015.26
2022-08-02T01:46:07.452Z,1015.23
2022-08-02T01:47:07.437Z,1015.22
2022-08-02T01:48:06.848Z,1015.18
2022-08-02T01:49:09.431Z,1015.18
2022-08-02T01:50:06.780Z,1015.16
2022-08-02T01:51:07.398Z,1015.24
2022-08-02T01:52:07.807Z,1015.17
2022-08-02T01:53:07.370Z,1015.22
2022-08-02T01:54:06.721Z,1015.22
2022-08-02T01:55:06.842Z,1015.20
2022-08-02T01:56:07.349Z,1015.19
2022-08-02T01:57:06.679Z,1015.20
2022-08-02T01:58:07.321Z,1015.15
2022-08-02T01:59:07.304Z,1015.20
2022-08-02T02:00:06.644Z,1015.18
2022-08-02T02:01:07.278Z,1015.14
2022-08-02T02:02:07.272Z,1015.20
2022-08-02T02:03:07.253Z,1015.14
2022-08-02T02:04:07.252Z,1015.16
2022-08-02T02:05:06.573Z,1015.12
2022-08-02T02:06:07.202Z,1015.15
2022-08-02T02:07:06.533Z,1015.09
2022-08-02T02:08:07.203Z,1015.12
2022-08-02T02:09:07.193Z,1015.13
2022-08-02T02:10:07.183Z,1015.10
2022-08-02T02:12:10.090Z,1015.09
2022-08-02T02:12:14.285Z,1015.09
2022-08-02T02:13:08.157Z,1015.05
2022-08-02T02:14:07.097Z,1015.01
2022-08-02T02:15:06.553Z,1015.04
2022-08-02T02:16:07.125Z,1015.03
2022-08-02T02:17:06.430Z,1015.01
2022-08-02T02:18:12.987Z,1014.99
2022-08-02T02:19:08.078Z,1014.94
2022-08-02T02:20:07.088Z,1014.94
2022-08-02T02:21:06.569Z,1014.89
2022-08-02T02:22:06.401Z,1014.92
2022-08-02T02:23:07.038Z,1014.93
2022-08-02T02:24:09.097Z,1014.94
2022-08-02T02:25:06.969Z,1014.88
2022-08-02T02:26:06.367Z,1014.85
2022-08-02T02:27:06.996Z,1014.90
2022-08-02T02:28:07.762Z,1014.86
2022-08-02T02:29:06.969Z,1014.88
2022-08-02T02:30:06.326Z,1014.86
2022-08-02T02:31:08.728Z,1014.87
2022-08-02T02:32:06.950Z,1014.83
2022-08-02T02:33:06.929Z,1014.85
2022-08-02T02:34:06.998Z,1014.81
2022-08-02T02:35:06.380Z,1014.80
2022-08-02T02:36:06.921Z,1014.77
2022-08-02T02:37:06.909Z,1014.74
2022-08-02T02:38:06.222Z,1014.73
2022-08-02T02:39:10.230Z,1014.67
2022-08-02T02:40:07.203Z,1014.70
2022-08-02T02:41:06.164Z,1014.66
2022-08-02T02:42:07.027Z,1014.65
2022-08-02T02:43:06.835Z,1014.63
2022-08-02T02:44:06.820Z,1014.57
2022-08-02T02:45:06.809Z,1014.56
2022-08-02T02:46:06.786Z,1014.61
2022-08-02T02:47:06.115Z,1014.55
2022-08-02T02:48:06.786Z,1014.53
2022-08-02T02:49:06.784Z,1014.52
2022-08-02T02:50:06.743Z,1014.60
2022-08-02T02:51:08.343Z,1014.55
2022-08-02T02:52:07.093Z,1014.57
2022-08-02T02:53:06.723Z,1014.62
2022-08-02T02:54:30.501Z,1014.63
2022-08-02T02:55:07.137Z,1014.69
2022-08-02T02:56:06.697Z,1014.72
2022-08-02T02:57:06.718Z,1014.73
2022-08-02T02:58:06.655Z,1014.73
2022-08-02T02:59:05.974Z,1014.76
2022-08-02T03:00:06.646Z,1014.70
2022-08-02T03:01:06.069Z,1014.69
2022-08-02T03:02:06.624Z,1014.76
2022-08-02T03:03:06.615Z,1014.77
2022-08-02T03:04:06.056Z,1014.73
2022-08-02T03:05:06.588Z,1014.74
2022-08-02T03:06:14.923Z,1014.77
2022-08-02T03:07:06.875Z,1014.78
2022-08-02T03:08:06.558Z,1014.78
2022-08-02T03:09:06.540Z,1014.83
2022-08-02T03:10:08.338Z,1014.81
2022-08-02T03:11:05.865Z,1014.80
2022-08-02T03:12:06.518Z,1014.82
2022-08-02T03:13:06.516Z,1014.79
2022-08-02T03:14:05.860Z,1014.81
2022-08-02T03:15:05.870Z,1014.80
2022-08-02T03:16:06.699Z,1014.86
2022-08-02T03:17:06.476Z,1014.83
2022-08-02T03:18:05.828Z,1014.81
2022-08-02T03:19:05.811Z,1014.82
2022-08-02T03:20:06.051Z,1014.77
2022-08-02T03:21:06.246Z,1014.76
2022-08-02T03:22:06.684Z,1014.70
2022-08-02T03:23:05.753Z,1014.69
2022-08-02T03:24:06.383Z,1014.66
2022-08-02T03:25:06.371Z,1014.66
2022-08-02T03:26:06.361Z,1014.65
2022-08-02T03:27:05.676Z,1014.57
2022-08-02T03:28:06.334Z,1014.57
2022-08-02T03:29:10.059Z,1014.52
2022-08-02T03:30:07.078Z,1014.49
2022-08-02T03:31:06.303Z,1014.44
2022-08-02T03:32:06.302Z,1014.48
2022-08-02T03:33:05.658Z,1014.44
2022-08-02T03:34:06.285Z,1014.41
2022-08-02T03:35:06.264Z,1014.39
2022-08-02T03:36:06.254Z,1014.41
2022-08-02T03:37:05.594Z,1014.41
2022-08-02T03:38:06.325Z,1014.46
2022-08-02T03:39:05.576Z,1014.44
2022-08-02T03:40:06.209Z,1014.50
2022-08-02T03:41:06.209Z,1014.47
2022-08-02T03:42:06.185Z,1014.49
2022-08-02T03:43:06.195Z,1014.45
2022-08-02T03:44:06.166Z,1014.42
2022-08-02T03:45:08.717Z,1014.36
2022-08-02T03:46:05.510Z,1014.37
2022-08-02T03:47:05.474Z,1014.39
2022-08-02T03:48:30.508Z,1014.40
2022-08-02T03:49:07.140Z,1014.46
2022-08-02T03:50:05.418Z,1014.49
2022-08-02T03:51:05.432Z,1014.50
2022-08-02T03:52:05.397Z,1014.49
2022-08-02T03:53:06.088Z,1014.48
2022-08-02T03:54:07.828Z,1014.48
2022-08-02T03:55:07.928Z,1014.50
2022-08-02T03:56:05.609Z,1014.49
2022-08-02T03:57:06.098Z,1014.52
2022-08-02T03:58:06.242Z,1014.56
2022-08-02T03:59:06.033Z,1014.51
2022-08-02T04:00:05.313Z,1014.53
2022-08-02T04:01:05.419Z,1014.54
2022-08-02T04:02:05.973Z,1014.50
2022-08-02T04:03:05.975Z,1014.53
2022-08-02T04:04:05.312Z,1014.56
2022-08-02T04:05:05.931Z,1014.56
2022-08-02T04:06:05.301Z,1014.57
2022-08-02T04:07:07.241Z,1014.54
2022-08-02T04:08:36.847Z,1014.54
2022-08-02T04:09:06.688Z,1014.60
2022-08-02T04:10:05.988Z,1014.54
2022-08-02T04:11:05.202Z,1014.55
2022-08-02T04:12:05.173Z,1014.54
2022-08-02T04:13:05.203Z,1014.48
2022-08-02T04:14:05.188Z,1014.46
2022-08-02T04:15:05.823Z,1014.48
2022-08-02T04:16:05.814Z,1014.51
2022-08-02T04:17:05.808Z,1014.43
2022-08-02T04:18:05.142Z,1014.43
2022-08-02T04:19:06.428Z,1014.44
2022-08-02T04:20:05.135Z,1014.48
2022-08-02T04:21:05.757Z,1014.48
2022-08-02T04:22:05.766Z,1014.52
2022-08-02T04:23:07.008Z,1014.56
2022-08-02T04:24:05.054Z,1014.56
2022-08-02T04:25:05.128Z,1014.62
2022-08-02T04:26:07.880Z,1014.59
2022-08-02T04:27:19.353Z,1014.56
2022-08-02T04:28:17.027Z,1014.59
2022-08-02T04:29:06.693Z,1014.54
2022-08-02T04:30:04.978Z,1014.58
2022-08-02T04:31:05.016Z,1014.54
2022-08-02T04:32:04.969Z,1014.57
2022-08-02T04:33:05.120Z,1014.52
2022-08-02T04:34:05.627Z,1014.58
2022-08-02T04:35:21.105Z,1014.64
2022-08-02T04:36:05.968Z,1014.66
2022-08-02T04:37:05.600Z,1014.66
2022-08-02T04:38:10.102Z,1014.71
2022-08-02T04:39:04.906Z,1014.70
2022-08-02T04:40:04.872Z,1014.72
2022-08-02T04:41:04.889Z,1014.71
2022-08-02T04:42:04.880Z,1014.77
2022-08-02T04:43:04.858Z,1014.76
2022-08-02T04:44:06.287Z,1014.72
2022-08-02T04:45:05.500Z,1014.72
2022-08-02T04:46:04.889Z,1014.67
2022-08-02T04:47:06.878Z,1014.71
2022-08-02T04:48:06.289Z,1014.72
2022-08-02T04:49:05.542Z,1014.72
2022-08-02T04:50:05.450Z,1014.75
2022-08-02T04:51:05.432Z,1014.75
2022-08-02T04:52:04.754Z,1014.76
2022-08-02T04:53:05.424Z,1014.83
2022-08-02T04:54:06.437Z,1014.80
2022-08-02T04:55:06.166Z,1014.81
2022-08-02T04:56:04.702Z,1014.80
2022-08-02T04:57:05.506Z,1014.79
2022-08-02T04:58:23.826Z,1014.77
2022-08-02T04:59:07.143Z,1014.77
2022-08-02T05:00:04.659Z,1014.80
2022-08-02T05:01:05.373Z,1014.80
2022-08-02T05:02:05.482Z,1014.83
2022-08-02T05:03:05.315Z,1014.80
2022-08-02T05:04:05.305Z,1014.80
2022-08-02T05:05:09.884Z,1014.75
2022-08-02T05:06:18.810Z,1014.73
2022-08-02T05:07:07.521Z,1014.74
2022-08-02T05:08:04.575Z,1014.68
2022-08-02T05:09:05.256Z,1014.68
2022-08-02T05:10:04.568Z,1014.69
2022-08-02T05:11:04.664Z,1014.69
2022-08-02T05:12:05.204Z,1014.66
2022-08-02T05:13:05.200Z,1014.65
2022-08-02T05:14:04.545Z,1014.68
2022-08-02T05:15:04.508Z,1014.66
2022-08-02T05:16:05.160Z,1014.72
2022-08-02T05:17:04.698Z,1014.65
2022-08-02T05:18:05.149Z,1014.69
2022-08-02T05:19:05.137Z,1014.71
2022-08-02T05:20:05.148Z,1014.69
2022-08-02T05:21:05.129Z,1014.71
2022-08-02T05:22:05.101Z,1014.74
2022-08-02T05:23:04.434Z,1014.77
2022-08-02T05:24:04.409Z,1014.82
2022-08-02T05:25:05.071Z,1014.81
2022-08-02T05:26:04.391Z,1014.83
2022-08-02T05:27:16.932Z,1014.87
2022-08-02T05:28:11.297Z,1014.90
2022-08-02T05:29:06.021Z,1014.89
2022-08-02T05:30:05.016Z,1014.91
2022-08-02T05:31:05.007Z,1014.91
2022-08-02T05:32:05.503Z,1014.92
2022-08-02T05:33:04.307Z,1014.90
2022-08-02T05:34:07.577Z,1014.90
2022-08-02T05:35:07.205Z,1014.89
2022-08-02T05:36:04.954Z,1014.89
2022-08-02T05:37:09.666Z,1014.88
2022-08-02T05:38:10.195Z,1014.94
2022-08-02T05:39:06.175Z,1014.91
2022-08-02T05:40:05.273Z,1014.87
2022-08-02T05:41:05.233Z,1014.81
2022-08-02T05:42:04.885Z,1014.84
2022-08-02T05:43:04.878Z,1014.83
2022-08-02T05:44:04.255Z,1014.77
2022-08-02T05:45:04.172Z,1014.75
2022-08-02T05:46:04.836Z,1014.80
2022-08-02T05:47:04.837Z,1014.82
2022-08-02T05:48:04.826Z,1014.81
2022-08-02T05:49:04.142Z,1014.84
2022-08-02T05:50:04.128Z,1014.79
2022-08-02T05:51:04.788Z,1014.85
2022-08-02T05:52:06.110Z,1014.85
2022-08-02T05:53:04.119Z,1014.84
2022-08-02T05:54:04.759Z,1014.92
2022-08-02T05:55:04.740Z,1014.85
2022-08-02T05:56:08.364Z,1014.84
2022-08-02T05:57:04.032Z,1014.83
2022-08-02T05:58:04.079Z,1014.89
2022-08-02T05:59:04.024Z,1014.96
2022-08-02T06:00:04.686Z,1014.93
2022-08-02T06:01:04.941Z,1014.98
2022-08-02T06:02:04.049Z,1015.01
2022-08-02T06:03:04.659Z,1015.04
2022-08-02T06:04:04.641Z,1015.02
2022-08-02T06:05:04.924Z,1015.02
2022-08-02T06:06:04.123Z,1015.02
2022-08-02T06:07:03.951Z,1015.07
2022-08-02T06:08:04.616Z,1015.05
2022-08-02T06:09:03.924Z,1015.00
2022-08-02T06:10:04.024Z,1015.03
2022-08-02T06:11:04.584Z,1015.05
2022-08-02T06:12:03.925Z,1015.00
2022-08-02T06:13:03.865Z,1015.01
2022-08-02T06:14:03.894Z,1015.07
2022-08-02T06:15:03.877Z,1015.05
2022-08-02T06:16:03.914Z,1015.07
2022-08-02T06:17:05.949Z,1014.93
2022-08-02T06:18:03.899Z,1014.91
2022-08-02T06:19:03.833Z,1015.05
2022-08-02T06:20:03.848Z,1015.07
2022-08-02T06:22:31.471Z,1014.89
2022-08-02T06:22:34.021Z,1015.05
2022-08-02T06:23:08.753Z,1014.90
2022-08-02T06:24:03.811Z,1015.02
2022-08-02T06:25:04.440Z,1015.12
2022-08-02T06:26:03.775Z,1014.91
2022-08-02T06:27:03.720Z,1015.00
2022-08-02T06:28:04.379Z,1015.01
2022-08-02T06:29:06.162Z,1014.99
2022-08-02T06:30:03.689Z,1014.93
2022-08-02T06:31:04.361Z,1015.01
2022-08-02T06:32:04.352Z,1014.78
2022-08-02T06:33:03.833Z,1014.92
2022-08-02T06:34:05.112Z,1014.90
2022-08-02T06:35:04.318Z,1014.90
2022-08-02T06:36:03.644Z,1014.83
2022-08-02T06:37:04.306Z,1014.84
2022-08-02T06:38:03.615Z,1014.88
2022-08-02T06:39:04.275Z,1014.91
2022-08-02T06:40:04.275Z,1014.92
2022-08-02T06:41:03.571Z,1014.98
2022-08-02T06:42:03.583Z,1015.00
2022-08-02T06:43:04.230Z,1015.10
2022-08-02T06:44:25.270Z,1015.24
2022-08-02T06:45:05.987Z,1015.32
2022-08-02T06:47:02.036Z,1015.34
2022-08-02T06:47:11.332Z,1015.38
2022-08-02T06:48:05.178Z,1015.42
2022-08-02T06:49:04.224Z,1015.40
2022-08-02T06:50:04.214Z,1015.39
2022-08-02T06:51:03.493Z,1015.36
2022-08-02T06:52:04.130Z,1015.42
2022-08-02T06:53:04.122Z,1015.45
2022-08-02T06:54:03.469Z,1015.45
2022-08-02T06:55:04.113Z,1015.57
2022-08-02T06:56:04.870Z,1015.61
2022-08-02T06:57:03.452Z,1015.59
2022-08-02T06:58:04.080Z,1015.56
2022-08-02T06:59:06.090Z,1015.53
2022-08-02T07:00:04.055Z,1015.49
2022-08-02T07:01:04.063Z,1015.48
2022-08-02T07:02:03.377Z,1015.28
2022-08-02T07:03:03.372Z,1015.22
2022-08-02T07:04:03.326Z,1015.14
2022-08-02T07:05:03.306Z,1015.16
2022-08-02T07:06:03.296Z,1015.08
2022-08-02T07:07:04.726Z,1015.12
2022-08-02T07:08:03.977Z,1015.09
2022-08-02T07:09:20.929Z,1015.09
2022-08-02T07:10:04.270Z,1014.97
2022-08-02T07:11:03.256Z,1014.93
2022-08-02T07:12:03.238Z,1015.03
2022-08-02T07:13:03.287Z,1015.13
2022-08-02T07:14:03.250Z,1015.11
2022-08-02T07:15:03.879Z,1015.12
2022-08-02T07:16:03.199Z,1015.10
2022-08-02T07:17:03.198Z,1015.10
2022-08-02T07:18:03.181Z,1015.08
2022-08-02T07:19:03.860Z,1015.04
2022-08-02T07:20:03.841Z,1015.01
2022-08-02T07:21:03.896Z,1014.97
2022-08-02T07:22:03.823Z,1014.95
2022-08-02T07:23:03.821Z,1014.94
2022-08-02T07:24:03.792Z,1014.90
2022-08-02T07:25:03.797Z,1014.88
2022-08-02T07:26:05.795Z,1014.93
2022-08-02T07:27:12.221Z,1014.95
2022-08-02T07:28:04.065Z,1014.91
2022-08-02T07:29:04.526Z,1014.87
2022-08-02T07:30:03.065Z,1014.91
2022-08-02T07:31:03.074Z,1014.90
2022-08-02T07:32:03.065Z,1014.85
2022-08-02T07:33:03.708Z,1014.81
2022-08-02T07:34:03.695Z,1014.79
2022-08-02T07:35:06.868Z,1014.80
2022-08-02T07:36:04.831Z,1014.77
2022-08-02T07:37:03.677Z,1014.72
2022-08-02T07:38:03.660Z,1014.70
2022-08-02T07:39:03.655Z,1014.72
2022-08-02T07:40:04.685Z,1014.69
2022-08-02T07:41:02.939Z,1014.67
2022-08-02T07:42:02.948Z,1014.66
2022-08-02T07:43:04.306Z,1014.65
2022-08-02T07:44:03.591Z,1014.61
2022-08-02T07:45:03.582Z,1014.59
2022-08-02T07:46:02.892Z,1014.57
2022-08-02T07:47:02.881Z,1014.57
2022-08-02T07:48:02.896Z,1014.57
2022-08-02T07:49:03.627Z,1014.64
2022-08-02T07:50:03.535Z,1014.64
2022-08-02T07:51:04.871Z,1014.62
2022-08-02T07:52:02.825Z,1014.62
2022-08-02T07:53:03.496Z,1014.59
2022-08-02T07:54:04.772Z,1014.56
2022-08-02T07:55:04.737Z,1014.57
2022-08-02T07:56:03.473Z,1014.58
2022-08-02T07:57:03.533Z,1014.54
2022-08-02T07:58:02.770Z,1014.54
2022-08-02T07:59:03.448Z,1014.53
2022-08-02T08:00:03.526Z,1014.53
2022-08-02T08:01:02.839Z,1014.57
2022-08-02T08:02:04.213Z,1014.56
2022-08-02T08:03:02.767Z,1014.56
2022-08-02T08:04:03.387Z,1014.55
2022-08-02T08:05:03.377Z,1014.55
2022-08-02T08:06:02.678Z,1014.55
2022-08-02T08:07:03.363Z,1014.57
2022-08-02T08:08:03.354Z,1014.55
2022-08-02T08:09:02.678Z,1014.57
2022-08-02T08:10:03.344Z,1014.54
2022-08-02T08:11:03.341Z,1014.56
2022-08-02T08:12:03.305Z,1014.53
2022-08-02T08:13:04.060Z,1014.53
2022-08-02T08:14:02.592Z,1014.56
2022-08-02T08:15:02.653Z,1014.51
2022-08-02T08:16:02.607Z,1014.52
2022-08-02T08:17:03.253Z,1014.45
2022-08-02T08:18:02.555Z,1014.45
2022-08-02T08:19:03.247Z,1014.44
2022-08-02T08:20:03.351Z,1014.43
2022-08-02T08:21:03.195Z,1014.41
2022-08-02T08:22:03.197Z,1014.39
2022-08-02T08:23:03.196Z,1014.41
2022-08-02T08:24:03.938Z,1014.41
2022-08-02T08:25:03.201Z,1014.40
2022-08-02T08:26:02.468Z,1014.42
2022-08-02T08:27:03.139Z,1014.40
2022-08-02T08:28:03.129Z,1014.40
2022-08-02T08:29:03.131Z,1014.44
2022-08-02T08:30:03.153Z,1014.41
2022-08-02T08:31:03.109Z,1014.35
2022-08-02T08:32:03.108Z,1014.33
2022-08-02T08:33:04.862Z,1014.30
2022-08-02T08:34:04.301Z,1014.30
2022-08-02T08:35:03.822Z,1014.30
2022-08-02T08:36:02.714Z,1014.29
2022-08-02T08:37:02.382Z,1014.31
2022-08-02T08:38:07.222Z,1014.39
2022-08-02T08:39:03.404Z,1014.39
2022-08-02T08:40:03.035Z,1014.37
2022-08-02T08:41:03.016Z,1014.39
2022-08-02T08:42:03.017Z,1014.35
2022-08-02T08:43:02.293Z,1014.33
2022-08-02T08:44:02.296Z,1014.36
2022-08-02T08:45:02.954Z,1014.32
2022-08-02T08:46:02.264Z,1014.32
2022-08-02T08:47:02.947Z,1014.31
2022-08-02T08:48:02.245Z,1014.33
2022-08-02T08:49:02.277Z,1014.26
2022-08-02T08:50:02.239Z,1014.33
2022-08-02T08:51:02.248Z,1014.31
2022-08-02T08:52:02.890Z,1014.32
2022-08-02T08:53:04.136Z,1014.34
2022-08-02T08:54:02.173Z,1014.26
2022-08-02T08:55:02.171Z,1014.25
2022-08-02T08:56:02.831Z,1014.21
2022-08-02T08:57:02.177Z,1014.22
2022-08-02T08:58:02.822Z,1014.22
2022-08-02T08:59:02.120Z,1014.28
2022-08-02T09:00:02.821Z,1014.26
2022-08-02T09:01:02.886Z,1014.26
2022-08-02T09:02:16.833Z,1014.19
2022-08-02T09:03:03.226Z,1014.23
2022-08-02T09:04:02.083Z,1014.20
2022-08-02T09:05:02.117Z,1014.14
2022-08-02T09:06:02.061Z,1014.09
2022-08-02T09:07:02.113Z,1014.12
2022-08-02T09:08:03.511Z,1014.08
2022-08-02T09:09:02.078Z,1014.11
2022-08-02T09:10:02.708Z,1014.10
2022-08-02T09:11:02.705Z,1014.07
2022-08-02T09:12:02.675Z,1014.10
2022-08-02T09:13:02.678Z,1014.11
2022-08-02T09:14:02.987Z,1014.08
2022-08-02T09:15:02.650Z,1014.14
2022-08-02T09:16:12.314Z,1014.23
2022-08-02T09:17:02.939Z,1014.18
2022-08-02T09:18:01.950Z,1014.14
2022-08-02T09:19:03.371Z,1014.13
2022-08-02T09:20:01.938Z,1014.09
2022-08-02T09:21:01.930Z,1014.11
2022-08-02T09:22:02.572Z,1014.12
2022-08-02T09:23:02.567Z,1014.10
2022-08-02T09:24:02.213Z,1014.09
2022-08-02T09:25:02.542Z,1014.05
2022-08-02T09:26:07.017Z,1014.06
2022-08-02T09:27:02.850Z,1014.04
2022-08-02T09:28:01.862Z,1014.05
2022-08-02T09:29:02.508Z,1014.03
2022-08-02T09:30:12.452Z,1014.08
2022-08-02T09:31:03.491Z,1014.04
2022-08-02T09:32:02.466Z,1014.08
2022-08-02T09:33:05.740Z,1014.12
2022-08-02T09:34:01.793Z,1014.11
2022-08-02T09:35:02.446Z,1014.13
2022-08-02T09:36:06.160Z,1014.05
2022-08-02T09:37:02.767Z,1014.04
2022-08-02T09:38:02.416Z,1014.07
2022-08-02T09:39:01.791Z,1014.08
2022-08-02T09:40:01.724Z,1014.02
2022-08-02T09:41:03.619Z,1014.03
2022-08-02T09:42:02.368Z,1014.02
2022-08-02T09:43:02.349Z,1014.02
2022-08-02T09:44:05.433Z,1013.98
2022-08-02T09:45:03.569Z,1014.03
2022-08-02T09:46:02.331Z,1014.04
2022-08-02T09:47:01.633Z,1014.03
2022-08-02T09:48:01.631Z,1014.01
2022-08-02T09:49:03.622Z,1014.02
2022-08-02T09:50:02.831Z,1014.02
2022-08-02T09:51:02.295Z,1014.01
2022-08-02T09:52:02.262Z,1013.99
2022-08-02T09:53:02.530Z,1014.03
2022-08-02T09:54:09.515Z,1014.02
2022-08-02T09:55:04.124Z,1013.97
2022-08-02T09:56:01.546Z,1014.00
2022-08-02T09:57:02.236Z,1014.04
2022-08-02T09:58:02.219Z,1014.06
2022-08-02T09:59:02.206Z,1014.03
2022-08-02T10:00:02.189Z,1014.02
2022-08-02T10:01:01.608Z,1014.03
2022-08-02T10:02:04.032Z,1013.99
2022-08-02T10:03:02.418Z,1013.99
2022-08-02T10:04:02.145Z,1013.98
2022-08-02T10:05:02.138Z,1013.99
2022-08-02T10:06:02.469Z,1013.92
2022-08-02T10:07:02.130Z,1013.94
2022-08-02T10:08:02.110Z,1013.94
2022-08-02T10:09:02.147Z,1013.95
2022-08-02T10:10:02.347Z,1013.93
2022-08-02T10:11:02.085Z,1013.97
2022-08-02T10:12:03.445Z,1013.95
2022-08-02T10:13:02.044Z,1013.93
2022-08-02T10:14:02.055Z,1013.96
2022-08-02T10:15:01.372Z,1014.00
2022-08-02T10:16:03.809Z,1013.98
2022-08-02T10:17:02.013Z,1013.93
2022-08-02T10:18:12.897Z,1013.93
2022-08-02T10:19:02.973Z,1013.95
2022-08-02T10:20:04.795Z,1013.96
2022-08-02T10:21:01.312Z,1013.90
2022-08-02T10:22:01.288Z,1013.90
2022-08-02T10:23:03.728Z,1013.94
2022-08-02T10:24:01.301Z,1013.92
2022-08-02T10:25:03.089Z,1013.88
2022-08-02T10:26:01.956Z,1013.94
2022-08-02T10:27:01.911Z,1013.92
2022-08-02T10:28:05.515Z,1013.88
2022-08-02T10:29:01.208Z,1013.89
2022-08-02T10:30:01.869Z,1013.89
2022-08-02T10:31:01.947Z,1013.88
2022-08-02T10:32:01.857Z,1013.88
2022-08-02T10:33:01.179Z,1013.81
2022-08-02T10:34:01.837Z,1013.84
2022-08-02T10:35:02.668Z,1013.82
2022-08-02T10:36:04.529Z,1013.81
2022-08-02T10:37:02.586Z,1013.74
2022-08-02T10:38:01.840Z,1013.78
2022-08-02T10:39:03.551Z,1013.76
2022-08-02T10:40:03.541Z,1013.72
2022-08-02T10:41:01.095Z,1013.77
2022-08-02T10:42:01.164Z,1013.82
2022-08-02T10:43:01.742Z,1013.78
2022-08-02T10:44:01.737Z,1013.84
2022-08-02T10:45:01.723Z,1013.74
2022-08-02T10:46:01.735Z,1013.78
2022-08-02T10:47:01.160Z,1013.73
2022-08-02T10:48:01.994Z,1013.69
2022-08-02T10:49:13.699Z,1013.59
2022-08-02T10:50:03.939Z,1013.61
2022-08-02T10:51:01.675Z,1013.66
2022-08-02T10:52:01.659Z,1013.60
2022-08-02T10:53:03.409Z,1013.49
2022-08-02T10:54:01.617Z,1013.57
2022-08-02T10:55:01.617Z,1013.54
2022-08-02T10:56:01.621Z,1013.54
2022-08-02T10:57:01.765Z,1013.53
2022-08-02T10:58:01.850Z,1013.50
2022-08-02T10:59:01.580Z,1013.55
2022-08-02T11:00:01.581Z,1013.57
2022-08-02T11:01:01.610Z,1013.53
2022-08-02T11:02:01.713Z,1013.56
2022-08-02T11:03:00.852Z,1013.52
2022-08-02T11:04:07.046Z,1013.53
2022-08-02T11:05:02.521Z,1013.57
2022-08-02T11:06:01.510Z,1013.51
2022-08-02T11:07:01.501Z,1013.51
2022-08-02T11:08:01.495Z,1013.54
2022-08-02T11:09:01.482Z,1013.46
2022-08-02T11:10:01.514Z,1013.47
2022-08-02T11:11:01.480Z,1013.46
2022-08-02T11:12:01.457Z,1013.43
2022-08-02T11:13:03.196Z,1013.47
2022-08-02T11:14:03.205Z,1013.43
2022-08-02T11:15:01.418Z,1013.42
2022-08-02T11:16:01.472Z,1013.45
2022-08-02T11:17:01.385Z,1013.45
2022-08-02T11:18:01.387Z,1013.43
2022-08-02T11:19:01.377Z,1013.45
2022-08-02T11:20:01.377Z,1013.47
2022-08-02T11:21:01.374Z,1013.41
2022-08-02T11:22:00.658Z,1013.40
2022-08-02T11:23:01.338Z,1013.40
2022-08-02T11:24:03.070Z,1013.41
2022-08-02T11:25:03.066Z,1013.41
2022-08-02T11:26:07.568Z,1013.38
2022-08-02T11:27:03.521Z,1013.42
2022-08-02T11:28:01.283Z,1013.41
2022-08-02T11:29:01.281Z,1013.40
2022-08-02T11:30:00.592Z,1013.37
2022-08-02T11:31:02.873Z,1013.34
2022-08-02T11:32:01.255Z,1013.35
2022-08-02T11:33:01.224Z,1013.35
2022-08-02T11:34:00.570Z,1013.32
2022-08-02T11:35:00.580Z,1013.33
2022-08-02T11:36:00.552Z,1013.31
2022-08-02T11:37:00.505Z,1013.27
2022-08-02T11:38:01.186Z,1013.28
2022-08-02T11:39:00.538Z,1013.27
2022-08-02T11:40:01.165Z,1013.27
2022-08-02T11:41:01.145Z,1013.33
2022-08-02T11:42:02.888Z,1013.28
2022-08-02T11:43:02.900Z,1013.31
2022-08-02T11:44:00.439Z,1013.27
2022-08-02T11:45:01.117Z,1013.25
2022-08-02T11:46:01.098Z,1013.22
2022-08-02T11:47:00.477Z,1013.22
2022-08-02T11:48:01.077Z,1013.22
2022-08-02T11:49:02.846Z,1013.20
2022-08-02T11:50:02.321Z,1013.12
2022-08-02T11:51:01.309Z,1013.20
2022-08-02T11:52:00.377Z,1013.19
2022-08-02T11:53:01.430Z,1013.14
2022-08-02T11:54:01.022Z,1013.12
2022-08-02T11:55:00.332Z,1013.12
2022-08-02T11:56:01.017Z,1013.14
2022-08-02T11:57:00.303Z,1013.12
2022-08-02T11:58:03.547Z,1013.18
2022-08-02T11:59:00.945Z,1013.18
2022-08-02T12:00:00.953Z,1013.15
2022-08-02T12:01:00.293Z,1013.19
2022-08-02T12:02:00.925Z,1013.20
2022-08-02T12:03:00.322Z,1013.15
2022-08-02T12:04:03.096Z,1013.20
2022-08-02T12:05:00.286Z,1013.16